createdAt,value
2023-03-11T00:00:28.580Z,3.00
2023-03-11T00:01:41.151Z,2.28
2023-03-11T00:02:53.579Z,2.50
2023-03-11T00:04:05.171Z,2.45
2023-03-11T00:05:17.548Z,2.55
2023-03-11T00:06:29.048Z,2.13
2023-03-11T00:07:40.567Z,2.33
2023-03-11T00:08:52.431Z,2.08
2023-03-11T00:10:04.181Z,1.85
2023-03-11T00:11:15.782Z,2.05
2023-03-11T00:12:27.188Z,2.50
2023-03-11T00:13:39.376Z,2.90
2023-03-11T00:14:50.915Z,2.55
2023-03-11T00:16:02.448Z,2.97
2023-03-11T00:17:13.956Z,3.17
2023-03-11T00:18:27.210Z,2.83
2023-03-11T00:19:38.753Z,2.63
2023-03-11T00:20:50.207Z,2.80
2023-03-11T00:22:02.492Z,3.63
2023-03-11T00:23:14.626Z,2.70
2023-03-11T00:24:26.332Z,3.53
2023-03-11T00:25:38.940Z,3.90
2023-03-11T00:26:50.435Z,4.60
2023-03-11T00:28:02.084Z,3.47
2023-03-11T00:29:13.595Z,3.97
2023-03-11T00:30:25.602Z,3.40
2023-03-11T00:31:37.049Z,3.88
2023-03-11T00:32:48.890Z,3.28
2023-03-11T00:34:00.544Z,3.72
2023-03-11T00:35:16.368Z,3.58
2023-03-11T00:36:28.923Z,3.13
2023-03-11T00:37:40.431Z,3.03
2023-03-11T00:38:51.923Z,2.70
2023-03-11T00:40:08.545Z,3.03
2023-03-11T00:41:20.072Z,3.17
2023-03-11T00:42:31.555Z,2.53
2023-03-11T00:43:43.672Z,1.92
2023-03-11T00:44:55.143Z,2.40
2023-03-11T00:46:06.600Z,2.72
2023-03-11T00:47:18.093Z,2.17
2023-03-11T00:48:29.561Z,2.40
2023-03-11T00:49:40.991Z,2.05
2023-03-11T00:50:52.512Z,2.25
2023-03-11T00:52:04.528Z,2.72
2023-03-11T00:53:16.015Z,2.83
2023-03-11T00:54:27.887Z,2.80
2023-03-11T00:55:39.463Z,2.42
2023-03-11T00:56:50.923Z,2.75
2023-03-11T00:58:04.022Z,2.35
2023-03-11T00:59:15.471Z,2.58
2023-03-11T01:00:27.800Z,2.60
2023-03-11T01:01:39.328Z,2.80
2023-03-11T01:02:51.226Z,2.08
2023-03-11T01:04:02.792Z,4.53
2023-03-11T01:05:14.599Z,4.13
2023-03-11T01:06:30.125Z,3.78
2023-03-11T01:07:47.575Z,2.65
2023-03-11T01:08:59.238Z,3.38
2023-03-11T01:10:11.228Z,2.53
2023-03-11T01:11:22.700Z,2.33
2023-03-11T01:12:34.424Z,2.28
2023-03-11T01:13:45.836Z,2.88
2023-03-11T01:14:57.301Z,2.10
2023-03-11T01:16:09.453Z,2.35
2023-03-11T01:17:22.276Z,3.40
2023-03-11T01:18:34.030Z,2.40
2023-03-11T01:19:45.497Z,3.10
2023-03-11T01:20:57.038Z,3.15
2023-03-11T01:22:08.549Z,3.10
2023-03-11T01:23:20.537Z,3.13
2023-03-11T01:24:31.976Z,2.78
2023-03-11T01:25:43.607Z,2.70
2023-03-11T01:26:55.044Z,3.42
2023-03-11T01:28:08.362Z,2.65
2023-03-11T01:29:19.869Z,2.90
2023-03-11T01:30:31.506Z,3.03
2023-03-11T01:31:42.961Z,1.35
2023-03-11T01:32:55.481Z,1.30
2023-03-11T01:34:06.901Z,0.50
2023-03-11T01:35:19.269Z,0.63
2023-03-11T01:36:30.718Z,0.57
2023-03-11T01:37:42.169Z,0.30
2023-03-11T01:38:53.655Z,0.95
2023-03-11T01:40:05.854Z,0.60
2023-03-11T01:41:17.560Z,0.55
2023-03-11T01:42:28.993Z,0.40
2023-03-11T01:43:46.927Z,0.40
2023-03-11T01:44:58.390Z,1.02
2023-03-11T01:46:24.961Z,0.55
2023-03-11T01:47:37.836Z,0.90
2023-03-11T01:48:50.605Z,1.23
2023-03-11T01:50:03.537Z,0.45
2023-03-11T01:51:16.327Z,0.10
2023-03-11T01:52:28.455Z,0.35
2023-03-11T01:53:40.095Z,0.57
2023-03-11T01:54:52.039Z,0.70
2023-03-11T01:56:05.007Z,0.32
2023-03-11T01:57:16.535Z,0.20
2023-03-11T01:58:30.755Z,0.20
2023-03-11T01:59:47.361Z,0.30
2023-03-11T02:00:59.827Z,0.55
2023-03-11T02:02:11.283Z,0.43
2023-03-11T02:03:31.506Z,0.38
2023-03-11T02:04:43.146Z,0.38
2023-03-11T02:05:55.871Z,0.20
2023-03-11T02:07:07.604Z,0.52
2023-03-11T02:08:19.072Z,0.25
2023-03-11T02:09:30.612Z,0.40
2023-03-11T02:10:42.709Z,0.50
2023-03-11T02:11:54.454Z,0.40
2023-03-11T02:13:05.944Z,0.40
2023-03-11T02:14:17.661Z,0.25
2023-03-11T02:15:29.639Z,0.20
2023-03-11T02:16:41.111Z,0.20
2023-03-11T02:17:53.691Z,0.70
2023-03-11T02:19:12.718Z,0.30
2023-03-11T02:20:50.438Z,0.40
2023-03-11T02:22:02.267Z,0.60
2023-03-11T02:23:15.293Z,0.57
2023-03-11T02:24:39.142Z,0.55
2023-03-11T02:25:58.202Z,0.30
2023-03-11T02:27:11.879Z,0.40
2023-03-11T02:28:24.145Z,0.32
2023-03-11T02:29:36.579Z,0.80
2023-03-11T02:30:48.555Z,0.40
2023-03-11T02:32:01.565Z,0.30
2023-03-11T02:33:13.905Z,0.30
2023-03-11T02:34:27.065Z,0.30
2023-03-11T02:35:38.541Z,0.80
2023-03-11T02:36:50.097Z,0.45
2023-03-11T02:38:01.551Z,0.47
2023-03-11T02:39:13.000Z,0.30
2023-03-11T02:40:24.471Z,0.50
2023-03-11T02:41:37.787Z,0.50
2023-03-11T02:42:54.769Z,0.57
2023-03-11T02:44:10.806Z,0.30
2023-03-11T02:45:24.545Z,0.30
2023-03-11T02:46:36.957Z,0.68
2023-03-11T02:47:49.099Z,0.30
2023-03-11T02:49:00.895Z,0.40
2023-03-11T02:50:13.685Z,0.30
2023-03-11T02:51:25.122Z,0.28
2023-03-11T02:52:36.695Z,0.38
2023-03-11T02:53:50.733Z,0.50
2023-03-11T02:55:02.545Z,0.60
2023-03-11T02:56:14.100Z,0.40
2023-03-11T02:57:25.721Z,0.52
2023-03-11T02:58:37.176Z,0.40
2023-03-11T02:59:48.637Z,0.60
2023-03-11T03:01:00.142Z,0.35
2023-03-11T03:02:11.698Z,0.55
2023-03-11T03:03:23.173Z,0.38
2023-03-11T03:04:34.721Z,0.35
2023-03-11T03:05:46.440Z,0.30
2023-03-11T03:06:57.889Z,0.40
2023-03-11T03:08:09.370Z,0.40
2023-03-11T03:09:20.860Z,0.43
2023-03-11T03:10:32.363Z,0.35
2023-03-11T03:11:43.844Z,0.30
2023-03-11T03:12:55.268Z,0.20
2023-03-11T03:14:06.725Z,0.57
2023-03-11T03:15:18.259Z,1.13
2023-03-11T03:16:29.769Z,0.40
2023-03-11T03:17:41.470Z,1.40
2023-03-11T03:18:52.994Z,2.28
2023-03-11T03:20:07.516Z,2.00
2023-03-11T03:21:18.974Z,2.15
2023-03-11T03:22:30.467Z,1.63
2023-03-11T03:23:41.937Z,0.80
2023-03-11T03:24:53.722Z,0.45
2023-03-11T03:26:05.781Z,0.52
2023-03-11T03:27:17.193Z,0.65
2023-03-11T03:28:28.602Z,0.60
2023-03-11T03:29:40.031Z,0.50
2023-03-11T03:30:51.532Z,0.50
2023-03-11T03:32:03.048Z,0.43
2023-03-11T03:33:14.526Z,0.90
2023-03-11T03:34:26.009Z,0.50
2023-03-11T03:35:42.519Z,0.40
2023-03-11T03:36:54.076Z,0.50
2023-03-11T03:38:05.571Z,0.30
2023-03-11T03:39:19.722Z,0.20
2023-03-11T03:40:31.135Z,0.40
2023-03-11T03:41:42.576Z,0.30
2023-03-11T03:42:54.112Z,0.30
2023-03-11T03:44:05.613Z,0.28
2023-03-11T03:45:17.109Z,0.38
2023-03-11T03:46:28.680Z,0.20
2023-03-11T03:47:40.092Z,0.30
2023-03-11T03:48:51.615Z,0.30
2023-03-11T03:50:04.505Z,0.28
2023-03-11T03:51:16.017Z,0.30
2023-03-11T03:52:27.463Z,0.43
2023-03-11T03:53:39.418Z,0.30
2023-03-11T03:54:51.119Z,0.40
2023-03-11T03:56:06.290Z,0.40
2023-03-11T03:57:17.804Z,0.50
2023-03-11T03:58:29.252Z,0.50
2023-03-11T03:59:40.680Z,0.40
2023-03-11T04:00:55.508Z,0.43
2023-03-11T04:02:07.061Z,0.70
2023-03-11T04:03:18.685Z,0.30
2023-03-11T04:04:30.600Z,0.30
2023-03-11T04:05:42.096Z,0.38
2023-03-11T04:06:53.603Z,0.28
2023-03-11T04:08:05.165Z,0.38
2023-03-11T04:09:16.597Z,0.75
2023-03-11T04:10:28.124Z,1.02
2023-03-11T04:11:39.630Z,8.93
2023-03-11T04:12:51.071Z,3.13
2023-03-11T04:14:03.261Z,5.50
2023-03-11T04:15:14.749Z,1.70
2023-03-11T04:16:26.228Z,1.20
2023-03-11T04:17:38.124Z,0.80
2023-03-11T04:18:49.596Z,0.57
2023-03-11T04:20:01.005Z,0.90
2023-03-11T04:21:12.517Z,0.90
2023-03-11T04:22:24.036Z,0.95
2023-03-11T04:23:35.541Z,0.50
2023-03-11T04:24:47.092Z,0.40
2023-03-11T04:25:58.700Z,0.60
2023-03-11T04:27:10.216Z,0.80
2023-03-11T04:28:21.767Z,1.33
2023-03-11T04:29:33.262Z,1.10
2023-03-11T04:30:44.696Z,0.95
2023-03-11T04:31:56.193Z,1.13
2023-03-11T04:33:07.684Z,0.65
2023-03-11T04:34:19.178Z,0.85
2023-03-11T04:35:30.685Z,0.80
2023-03-11T04:36:42.226Z,0.70
2023-03-11T04:37:53.717Z,0.57
2023-03-11T04:39:05.228Z,0.70
2023-03-11T04:40:16.933Z,0.90
2023-03-11T04:41:28.416Z,0.90
2023-03-11T04:42:39.875Z,0.80
2023-03-11T04:43:51.330Z,0.70
2023-03-11T04:45:03.225Z,0.70
2023-03-11T04:46:14.762Z,0.80
2023-03-11T04:47:26.355Z,0.70
2023-03-11T04:48:37.979Z,0.60
2023-03-11T04:49:49.455Z,0.82
2023-03-11T04:51:00.960Z,1.90
2023-03-11T04:52:12.455Z,2.08
2023-03-11T04:53:24.169Z,1.45
2023-03-11T04:54:35.612Z,1.10
2023-03-11T04:55:47.928Z,1.33
2023-03-11T04:56:59.366Z,1.17
2023-03-11T04:58:10.821Z,1.38
2023-03-11T04:59:22.277Z,3.25
2023-03-11T05:00:33.852Z,2.90
2023-03-11T05:01:45.363Z,2.53
2023-03-11T05:02:56.903Z,16.52
2023-03-11T05:04:08.637Z,6.90
2023-03-11T05:05:20.465Z,9.35
2023-03-11T05:06:31.937Z,5.22
2023-03-11T05:07:43.364Z,11.68
2023-03-11T05:08:54.855Z,9.18
2023-03-11T05:10:08.926Z,5.40
2023-03-11T05:11:20.425Z,3.95
2023-03-11T05:12:31.960Z,3.92
2023-03-11T05:13:43.415Z,1.90
2023-03-11T05:14:54.829Z,1.60
2023-03-11T05:16:06.593Z,1.40
2023-03-11T05:17:19.415Z,1.20
2023-03-11T05:18:32.518Z,1.10
2023-03-11T05:19:43.965Z,1.00
2023-03-11T05:20:56.783Z,0.80
2023-03-11T05:22:08.198Z,1.08
2023-03-11T05:23:19.673Z,2.40
2023-03-11T05:24:31.513Z,1.55
2023-03-11T05:25:42.961Z,1.25
2023-03-11T05:26:54.620Z,1.00
2023-03-11T05:28:06.144Z,0.80
2023-03-11T05:29:17.651Z,3.65
2023-03-11T05:30:29.232Z,1.27
2023-03-11T05:31:40.704Z,4.28
2023-03-11T05:32:52.245Z,7.43
2023-03-11T05:34:03.712Z,5.70
2023-03-11T05:35:15.358Z,6.03
2023-03-11T05:36:26.846Z,4.80
2023-03-11T05:37:39.364Z,5.22
2023-03-11T05:38:53.215Z,4.55
2023-03-11T05:40:06.925Z,3.22
2023-03-11T05:41:18.913Z,2.45
2023-03-11T05:42:30.374Z,1.45
2023-03-11T05:43:41.837Z,1.25
2023-03-11T05:44:53.296Z,0.90
2023-03-11T05:46:04.869Z,0.70
2023-03-11T05:47:16.879Z,0.73
2023-03-11T05:48:28.345Z,0.85
2023-03-11T05:49:39.841Z,0.70
2023-03-11T05:50:51.277Z,1.40
2023-03-11T05:52:02.894Z,1.00
2023-03-11T05:53:14.317Z,1.08
2023-03-11T05:54:25.794Z,1.10
2023-03-11T05:55:37.417Z,0.90
2023-03-11T05:56:48.866Z,1.20
2023-03-11T05:58:00.383Z,1.27
2023-03-11T05:59:15.866Z,1.98
2023-03-11T06:00:29.608Z,2.38
2023-03-11T06:01:41.827Z,1.55
2023-03-11T06:02:53.359Z,1.85
2023-03-11T06:04:05.381Z,1.70
2023-03-11T06:05:17.209Z,2.10
2023-03-11T06:06:28.865Z,2.28
2023-03-11T06:07:40.344Z,2.22
2023-03-11T06:08:51.827Z,3.70
2023-03-11T06:10:03.988Z,6.43
2023-03-11T06:11:15.453Z,4.38
2023-03-11T06:12:26.898Z,8.85
2023-03-11T06:13:38.653Z,6.13
2023-03-11T06:14:50.114Z,10.70
2023-03-11T06:16:01.582Z,15.93
2023-03-11T06:17:13.050Z,16.73
2023-03-11T06:18:26.816Z,13.32
2023-03-11T06:19:38.310Z,10.98
2023-03-11T06:20:49.853Z,7.10
2023-03-11T06:22:02.349Z,3.75
2023-03-11T06:23:13.801Z,3.30
2023-03-11T06:24:25.372Z,2.60
2023-03-11T06:25:36.859Z,4.60
2023-03-11T06:26:51.148Z,5.28
2023-03-11T06:28:02.580Z,4.80
2023-03-11T06:29:15.092Z,3.72
2023-03-11T06:30:26.685Z,2.58
2023-03-11T06:31:40.148Z,3.28
2023-03-11T06:32:51.826Z,2.65
2023-03-11T06:34:04.156Z,1.73
2023-03-11T06:35:15.735Z,1.90
2023-03-11T06:36:27.211Z,1.35
2023-03-11T06:37:39.186Z,1.13
2023-03-11T06:38:53.968Z,1.73
2023-03-11T06:40:07.564Z,1.80
2023-03-11T06:41:19.143Z,1.65
2023-03-11T06:42:30.621Z,1.60
2023-03-11T06:43:42.465Z,2.05
2023-03-11T06:44:53.995Z,2.35
2023-03-11T06:46:09.946Z,2.35
2023-03-11T06:47:21.491Z,3.20
2023-03-11T06:48:32.978Z,2.25
2023-03-11T06:49:44.441Z,3.30
2023-03-11T06:50:59.596Z,3.70
2023-03-11T06:52:11.104Z,3.67
2023-03-11T06:53:22.693Z,4.78
2023-03-11T06:54:34.396Z,3.08
2023-03-11T06:55:45.839Z,2.88
2023-03-11T06:56:57.298Z,2.67
2023-03-11T06:58:08.754Z,3.08
2023-03-11T06:59:20.932Z,3.25
2023-03-11T07:00:32.446Z,5.05
2023-03-11T07:01:43.912Z,5.00
2023-03-11T07:02:55.352Z,4.47
2023-03-11T07:04:06.852Z,3.85
2023-03-11T07:05:18.546Z,3.55
2023-03-11T07:06:29.965Z,3.38
2023-03-11T07:07:41.411Z,3.60
2023-03-11T07:08:53.681Z,5.15
2023-03-11T07:10:05.481Z,5.55
2023-03-11T07:11:19.240Z,5.95
2023-03-11T07:12:30.769Z,7.05
2023-03-11T07:13:42.493Z,7.50
2023-03-11T07:14:57.670Z,7.28
2023-03-11T07:16:19.584Z,7.18
2023-03-11T07:17:31.237Z,7.35
2023-03-11T07:18:43.615Z,6.60
2023-03-11T07:19:55.088Z,6.97
2023-03-11T07:21:07.472Z,5.82
2023-03-11T07:22:19.132Z,7.07
2023-03-11T07:23:30.589Z,5.55
2023-03-11T07:24:42.073Z,4.72
2023-03-11T07:25:55.567Z,5.90
2023-03-11T07:27:07.142Z,4.35
2023-03-11T07:28:19.059Z,4.93
2023-03-11T07:29:30.614Z,3.67
2023-03-11T07:30:44.476Z,3.00
2023-03-11T07:31:58.428Z,2.67
2023-03-11T07:33:09.960Z,3.17
2023-03-11T07:34:21.395Z,3.83
2023-03-11T07:35:35.239Z,3.35
2023-03-11T07:36:46.690Z,3.50
2023-03-11T07:37:58.139Z,4.05
2023-03-11T07:39:12.337Z,3.92
2023-03-11T07:40:23.845Z,4.75
2023-03-11T07:41:36.666Z,3.88
2023-03-11T07:42:48.156Z,3.58
2023-03-11T07:44:00.602Z,3.70
2023-03-11T07:45:12.113Z,4.65
2023-03-11T07:46:24.843Z,3.20
2023-03-11T07:47:36.321Z,3.13
2023-03-11T07:48:47.774Z,3.00
2023-03-11T07:49:59.211Z,2.40
2023-03-11T07:51:17.164Z,1.95
2023-03-11T07:52:32.049Z,2.28
2023-03-11T07:53:43.584Z,2.13
2023-03-11T07:54:55.117Z,2.70
2023-03-11T07:56:08.435Z,3.10
2023-03-11T07:57:19.909Z,1.65
2023-03-11T07:58:31.424Z,1.45
2023-03-11T07:59:43.155Z,1.70
2023-03-11T08:00:56.945Z,1.20
2023-03-11T08:02:09.765Z,1.13
2023-03-11T08:03:23.104Z,1.70
2023-03-11T08:04:34.721Z,1.97
2023-03-11T08:05:47.594Z,1.70
2023-03-11T08:06:59.180Z,1.70
2023-03-11T08:08:13.370Z,2.10
2023-03-11T08:09:24.953Z,1.13
2023-03-11T08:10:37.167Z,1.53
2023-03-11T08:11:49.765Z,1.43
2023-03-11T08:13:01.430Z,1.70
2023-03-11T08:14:13.078Z,2.50
2023-03-11T08:15:24.588Z,1.38
2023-03-11T08:16:36.211Z,1.50
2023-03-11T08:17:49.338Z,1.50
2023-03-11T08:19:00.830Z,1.60
2023-03-11T08:20:12.699Z,1.13
2023-03-11T08:21:26.640Z,1.07
2023-03-11T08:22:48.725Z,1.27
2023-03-11T08:24:07.370Z,1.40
2023-03-11T08:25:18.840Z,1.20
2023-03-11T08:26:32.902Z,0.97
2023-03-11T08:27:44.547Z,1.17
2023-03-11T08:28:57.197Z,1.00
2023-03-11T08:30:09.885Z,0.77
2023-03-11T08:31:24.282Z,0.70
2023-03-11T08:32:36.433Z,1.30
2023-03-11T08:33:51.863Z,1.83
2023-03-11T08:35:03.748Z,1.20
2023-03-11T08:36:15.405Z,1.07
2023-03-11T08:37:27.046Z,1.10
2023-03-11T08:38:38.953Z,0.90
2023-03-11T08:39:50.710Z,0.80
2023-03-11T08:41:02.480Z,1.50
2023-03-11T08:42:14.112Z,1.10
2023-03-11T08:43:25.553Z,1.17
2023-03-11T08:44:38.896Z,1.23
2023-03-11T08:45:50.520Z,0.90
2023-03-11T08:47:04.450Z,1.10
2023-03-11T08:48:16.112Z,0.80
2023-03-11T08:49:27.769Z,0.70
2023-03-11T08:50:53.438Z,1.10
2023-03-11T08:52:05.719Z,1.13
2023-03-11T08:53:17.207Z,0.97
2023-03-11T08:54:28.897Z,0.90
2023-03-11T08:55:40.373Z,0.80
2023-03-11T08:56:51.829Z,1.73
2023-03-11T08:58:03.605Z,1.00
2023-03-11T08:59:15.094Z,0.90
2023-03-11T09:00:26.626Z,0.73
2023-03-11T09:01:38.291Z,1.17
2023-03-11T09:02:49.890Z,1.00
2023-03-11T09:04:01.550Z,10.60
2023-03-11T09:05:13.182Z,0.97
2023-03-11T09:06:26.729Z,0.90
2023-03-11T09:07:41.143Z,0.80
2023-03-11T09:08:52.609Z,0.60
2023-03-11T09:10:04.897Z,0.70
2023-03-11T09:11:17.604Z,0.93
2023-03-11T09:12:29.220Z,1.07
2023-03-11T09:13:41.967Z,1.07
2023-03-11T09:14:54.865Z,0.83
2023-03-11T09:16:07.205Z,0.73
2023-03-11T09:17:18.682Z,0.83
2023-03-11T09:18:30.156Z,1.00
2023-03-11T09:19:41.688Z,1.10
2023-03-11T09:20:58.326Z,1.10
2023-03-11T09:22:09.963Z,0.77
2023-03-11T09:23:21.393Z,2.00
2023-03-11T09:24:33.944Z,1.07
2023-03-11T09:25:45.466Z,1.30
2023-03-11T09:26:57.146Z,0.83
2023-03-11T09:28:08.728Z,1.33
2023-03-11T09:29:20.730Z,1.00
2023-03-11T09:30:32.805Z,1.00
2023-03-11T09:31:44.381Z,1.50
2023-03-11T09:32:56.051Z,1.30
2023-03-11T09:34:08.680Z,0.90
2023-03-11T09:35:20.391Z,0.70
2023-03-11T09:36:31.883Z,0.67
2023-03-11T09:37:43.374Z,0.87
2023-03-11T09:38:54.931Z,1.97
2023-03-11T09:40:06.886Z,1.07
2023-03-11T09:41:18.313Z,0.90
2023-03-11T09:42:45.247Z,0.60
2023-03-11T09:44:08.766Z,1.13
2023-03-11T09:45:23.888Z,1.50
2023-03-11T09:46:47.438Z,0.70
2023-03-11T09:48:01.883Z,0.70
2023-03-11T09:49:16.192Z,1.03
2023-03-11T09:50:37.725Z,0.93
2023-03-11T09:52:06.577Z,1.60
2023-03-11T09:53:21.969Z,0.60
2023-03-11T09:54:36.812Z,0.50
2023-03-11T09:55:49.669Z,0.90
2023-03-11T09:57:03.044Z,0.73
2023-03-11T09:58:35.468Z,0.40
2023-03-11T09:59:47.354Z,0.50
2023-03-11T10:00:59.000Z,0.60
2023-03-11T10:02:15.073Z,0.43
2023-03-11T10:03:29.081Z,0.50
2023-03-11T10:04:44.140Z,0.60
2023-03-11T10:06:01.363Z,0.67
2023-03-11T10:07:18.027Z,0.80
2023-03-11T10:08:32.320Z,0.50
2023-03-11T10:09:48.229Z,0.63
2023-03-11T10:11:04.093Z,0.40
2023-03-11T10:12:22.251Z,0.30
2023-03-11T10:13:47.123Z,0.60
2023-03-11T10:14:58.539Z,0.50
2023-03-11T10:16:20.837Z,0.60
2023-03-11T10:17:47.655Z,0.70
2023-03-11T10:19:05.334Z,0.83
2023-03-11T10:20:19.829Z,0.57
2023-03-11T10:21:31.267Z,0.40
2023-03-11T10:23:06.493Z,0.50
2023-03-11T10:24:34.444Z,0.60
2023-03-11T10:26:04.561Z,0.60
2023-03-11T10:27:21.033Z,0.33
2023-03-11T10:28:35.649Z,0.50
2023-03-11T10:29:49.490Z,0.40
2023-03-11T10:31:04.472Z,0.50
2023-03-11T10:32:29.591Z,1.83
2023-03-11T10:33:47.656Z,0.30
2023-03-11T10:35:04.397Z,0.33
2023-03-11T10:36:24.395Z,0.37
2023-03-11T10:37:49.283Z,0.60
2023-03-11T10:39:03.573Z,1.20
2023-03-11T10:40:20.039Z,0.70
2023-03-11T10:41:42.451Z,0.60
2023-03-11T10:42:55.256Z,0.80
2023-03-11T10:44:11.492Z,0.40
2023-03-11T10:45:23.650Z,0.50
2023-03-11T10:46:35.237Z,0.60
2023-03-11T10:47:46.725Z,0.80
2023-03-11T10:49:00.573Z,0.57
2023-03-11T10:50:16.932Z,0.47
2023-03-11T10:51:34.348Z,0.60
2023-03-11T10:53:05.979Z,1.00
2023-03-11T10:54:22.193Z,1.13
2023-03-11T10:55:33.715Z,0.70
2023-03-11T10:56:50.022Z,0.40
2023-03-11T10:58:05.684Z,1.43
2023-03-11T10:59:25.469Z,0.70
2023-03-11T11:00:37.085Z,0.77
2023-03-11T11:02:14.680Z,1.17
2023-03-11T11:03:26.248Z,0.40
2023-03-11T11:04:39.669Z,0.87
2023-03-11T11:05:58.991Z,0.93
2023-03-11T11:07:28.986Z,1.43
2023-03-11T11:08:40.501Z,1.77
2023-03-11T11:10:10.696Z,1.07
2023-03-11T11:11:23.586Z,0.67
2023-03-11T11:12:35.030Z,0.90
2023-03-11T11:13:55.903Z,1.00
2023-03-11T11:15:20.557Z,0.97
2023-03-11T11:16:33.556Z,0.90
2023-03-11T11:17:47.230Z,0.40
2023-03-11T11:19:04.641Z,0.60
2023-03-11T11:20:19.890Z,0.40
2023-03-11T11:21:32.745Z,0.60
2023-03-11T11:22:54.582Z,1.00
2023-03-11T11:24:15.073Z,0.60
2023-03-11T11:25:26.686Z,0.60
2023-03-11T11:26:38.396Z,0.60
2023-03-11T11:28:00.591Z,0.50
2023-03-11T11:29:12.534Z,0.50
2023-03-11T11:30:24.783Z,0.53
2023-03-11T11:31:37.215Z,0.40
2023-03-11T11:32:49.187Z,0.30
2023-03-11T11:34:00.704Z,0.40
2023-03-11T11:35:14.040Z,0.50
2023-03-11T11:36:35.703Z,0.47
2023-03-11T11:37:48.741Z,0.30
2023-03-11T11:39:03.173Z,0.30
2023-03-11T11:40:14.929Z,0.50
2023-03-11T11:41:29.170Z,0.30
2023-03-11T11:42:42.785Z,0.63
2023-03-11T11:43:55.603Z,1.00
2023-03-11T11:45:13.523Z,0.40
2023-03-11T11:46:41.638Z,0.40
2023-03-11T11:47:55.848Z,0.50
2023-03-11T11:49:22.697Z,0.70
2023-03-11T11:50:42.133Z,0.70
2023-03-11T11:51:58.105Z,0.57
2023-03-11T11:53:09.526Z,0.60
2023-03-11T11:54:26.259Z,0.43
2023-03-11T11:55:38.951Z,0.50
2023-03-11T11:56:50.669Z,0.30
2023-03-11T11:58:02.146Z,0.33
2023-03-11T11:59:18.892Z,0.33
2023-03-11T12:00:50.916Z,0.40
2023-03-11T12:02:21.215Z,0.20
2023-03-11T12:03:52.539Z,0.50
2023-03-11T12:05:43.113Z,0.40
2023-03-11T12:07:06.462Z,0.40
2023-03-11T12:08:25.227Z,0.30
2023-03-11T12:09:46.211Z,0.30
2023-03-11T12:11:00.984Z,0.33
2023-03-11T12:12:47.736Z,0.40
2023-03-11T12:14:11.327Z,0.30
2023-03-11T12:15:32.200Z,0.67
2023-03-11T12:16:43.694Z,0.40
2023-03-11T12:18:00.740Z,0.33
2023-03-11T12:19:12.248Z,0.17
2023-03-11T12:20:32.717Z,0.30
2023-03-11T12:21:59.254Z,0.30
2023-03-11T12:23:16.669Z,0.30
2023-03-11T12:24:30.974Z,0.20
2023-03-11T12:25:59.306Z,0.30
2023-03-11T12:27:22.522Z,0.30
2023-03-11T12:28:39.864Z,0.30
2023-03-11T12:29:54.155Z,0.40
2023-03-11T12:31:09.080Z,0.40
2023-03-11T12:32:27.069Z,0.33
2023-03-11T12:33:42.938Z,0.30
2023-03-11T12:34:55.207Z,0.80
2023-03-11T12:36:07.841Z,0.50
2023-03-11T12:37:21.290Z,0.43
2023-03-11T12:38:34.522Z,0.60
2023-03-11T12:39:46.200Z,0.20
2023-03-11T12:40:59.577Z,0.40
2023-03-11T12:42:11.308Z,0.30
2023-03-11T12:43:25.715Z,0.50
2023-03-11T12:44:40.931Z,0.30
2023-03-11T12:45:53.523Z,0.40
2023-03-11T12:47:08.126Z,0.20
2023-03-11T12:48:36.480Z,0.30
2023-03-11T12:49:55.310Z,0.33
2023-03-11T12:51:07.181Z,0.50
2023-03-11T12:52:24.364Z,0.20
2023-03-11T12:53:41.982Z,0.40
2023-03-11T12:54:59.561Z,0.60
2023-03-11T12:56:14.173Z,0.30
2023-03-11T12:57:31.026Z,0.33
2023-03-11T12:58:42.538Z,0.33
2023-03-11T13:00:12.534Z,0.33
2023-03-11T13:01:43.399Z,0.20
2023-03-11T13:03:12.597Z,0.37
2023-03-11T13:04:42.634Z,0.40
2023-03-11T13:06:14.370Z,0.23
2023-03-11T13:07:35.214Z,0.20
2023-03-11T13:08:49.559Z,0.50
2023-03-11T13:10:09.482Z,2.00
2023-03-11T13:11:33.175Z,1.00
2023-03-11T13:12:46.109Z,1.30
2023-03-11T13:14:16.559Z,1.37
2023-03-11T13:15:46.271Z,2.97
2023-03-11T13:17:16.963Z,1.50
2023-03-11T13:18:30.794Z,0.70
2023-03-11T13:19:49.749Z,1.97
2023-03-11T13:21:01.934Z,0.63
2023-03-11T13:22:33.420Z,1.77
2023-03-11T13:23:45.101Z,0.40
2023-03-11T13:24:56.681Z,0.80
2023-03-11T13:26:27.138Z,1.17
2023-03-11T13:27:41.847Z,0.50
2023-03-11T13:29:10.802Z,0.40
2023-03-11T13:30:25.468Z,2.30
2023-03-11T13:31:55.921Z,1.30
2023-03-11T13:33:27.664Z,0.53
2023-03-11T13:34:44.708Z,0.60
2023-03-11T13:36:02.179Z,0.50
2023-03-11T13:37:17.592Z,0.40
2023-03-11T13:38:35.118Z,0.40
2023-03-11T13:40:04.917Z,0.30
2023-03-11T13:41:25.180Z,0.40
2023-03-11T13:42:44.811Z,0.30
2023-03-11T13:44:00.135Z,0.40
2023-03-11T13:45:26.759Z,0.30
2023-03-11T13:46:40.626Z,0.50
2023-03-11T13:47:53.837Z,0.30
2023-03-11T13:49:08.424Z,0.30
2023-03-11T13:50:26.059Z,0.60
2023-03-11T13:51:40.326Z,0.40
2023-03-11T13:52:55.815Z,0.40
2023-03-11T13:54:17.793Z,0.47
2023-03-11T13:55:40.541Z,0.30
2023-03-11T13:56:54.203Z,0.30
2023-03-11T13:58:25.924Z,0.33
2023-03-11T13:59:37.526Z,0.47
2023-03-11T14:00:53.665Z,0.50
2023-03-11T14:02:08.841Z,0.90
2023-03-11T14:03:23.293Z,1.03
2023-03-11T14:04:36.418Z,0.60
2023-03-11T14:05:49.521Z,1.00
2023-03-11T14:07:11.885Z,0.30
2023-03-11T14:08:28.673Z,0.30
2023-03-11T14:09:40.165Z,0.40
2023-03-11T14:11:02.364Z,0.57
2023-03-11T14:12:14.085Z,0.40
2023-03-11T14:13:27.504Z,0.50
2023-03-11T14:14:45.446Z,0.30
2023-03-11T14:15:56.877Z,0.30
2023-03-11T14:17:13.126Z,0.50
2023-03-11T14:18:30.529Z,0.50
2023-03-11T14:19:42.548Z,0.60
2023-03-11T14:20:54.234Z,0.80
2023-03-11T14:22:07.971Z,0.40
2023-03-11T14:23:20.227Z,0.60
2023-03-11T14:24:31.968Z,0.53
2023-03-11T14:25:43.789Z,0.80
2023-03-11T14:26:56.407Z,0.40
2023-03-11T14:28:08.131Z,0.60
2023-03-11T14:29:21.417Z,0.40
2023-03-11T14:30:34.703Z,0.57
2023-03-11T14:31:46.942Z,0.70
2023-03-11T14:33:03.337Z,1.73
2023-03-11T14:34:19.259Z,1.93
2023-03-11T14:35:32.143Z,3.20
2023-03-11T14:36:44.904Z,1.50
2023-03-11T14:37:56.789Z,0.97
2023-03-11T14:39:23.624Z,1.00
2023-03-11T14:40:42.107Z,0.60
2023-03-11T14:41:55.887Z,0.30
2023-03-11T14:43:08.251Z,0.40
2023-03-11T14:44:20.501Z,0.30
2023-03-11T14:45:33.957Z,0.30
2023-03-11T14:46:45.892Z,0.40
2023-03-11T14:48:01.211Z,0.30
2023-03-11T14:49:16.453Z,0.40
2023-03-11T14:50:30.620Z,0.70
2023-03-11T14:51:42.510Z,1.47
2023-03-11T14:53:06.013Z,0.50
2023-03-11T14:54:17.726Z,0.60
2023-03-11T14:55:35.288Z,0.63
2023-03-11T14:56:51.177Z,0.63
2023-03-11T14:58:02.658Z,0.60
2023-03-11T14:59:16.386Z,0.67
2023-03-11T15:00:29.840Z,0.90
2023-03-11T15:01:42.307Z,0.30
2023-03-11T15:03:17.149Z,0.57
2023-03-11T15:04:32.817Z,1.10
2023-03-11T15:05:58.052Z,0.70
2023-03-11T15:07:09.741Z,0.63
2023-03-11T15:08:22.744Z,0.43
2023-03-11T15:09:38.989Z,0.70
2023-03-11T15:11:04.324Z,1.00
2023-03-11T15:12:32.898Z,0.70
2023-03-11T15:13:47.366Z,0.50
2023-03-11T15:14:58.923Z,0.53
2023-03-11T15:16:28.790Z,0.73
2023-03-11T15:17:44.344Z,0.63
2023-03-11T15:18:56.387Z,0.50
2023-03-11T15:20:24.418Z,1.00
2023-03-11T15:21:35.877Z,0.60
2023-03-11T15:22:57.643Z,0.53
2023-03-11T15:24:17.980Z,0.83
2023-03-11T15:25:31.401Z,0.53
2023-03-11T15:26:54.009Z,0.60
2023-03-11T15:28:20.658Z,0.53
2023-03-11T15:29:33.591Z,0.37
2023-03-11T15:30:45.310Z,0.70
2023-03-11T15:31:57.615Z,0.60
2023-03-11T15:33:20.273Z,0.90
2023-03-11T15:34:32.686Z,13.93
2023-03-11T15:35:48.099Z,6.17
2023-03-11T15:37:04.301Z,2.00
2023-03-11T15:38:21.398Z,1.00
2023-03-11T15:39:33.107Z,1.00
2023-03-11T15:40:52.324Z,0.67
2023-03-11T15:42:06.860Z,0.67
2023-03-11T15:43:24.029Z,0.90
2023-03-11T15:44:36.877Z,1.07
2023-03-11T15:45:49.138Z,0.97
2023-03-11T15:47:01.140Z,1.17
2023-03-11T15:48:13.496Z,0.90
2023-03-11T15:49:25.391Z,0.70
2023-03-11T15:50:50.743Z,0.93
2023-03-11T15:52:04.912Z,0.70
2023-03-11T15:53:16.728Z,0.67
2023-03-11T15:54:28.719Z,0.80
2023-03-11T15:55:40.192Z,1.00
2023-03-11T15:56:51.729Z,1.37
2023-03-11T15:58:05.321Z,2.30
2023-03-11T15:59:17.192Z,1.30
2023-03-11T16:00:28.810Z,1.17
2023-03-11T16:01:40.552Z,1.10
2023-03-11T16:02:52.278Z,0.87
2023-03-11T16:04:03.868Z,1.70
2023-03-11T16:05:19.073Z,1.20
2023-03-11T16:06:30.562Z,2.10
2023-03-11T16:07:42.266Z,4.87
2023-03-11T16:08:54.388Z,7.37
2023-03-11T16:10:06.312Z,8.57
2023-03-11T16:11:18.916Z,7.10
2023-03-11T16:12:30.418Z,4.53
2023-03-11T16:13:42.160Z,3.70
2023-03-11T16:14:53.765Z,6.33
2023-03-11T16:16:05.595Z,3.23
2023-03-11T16:17:19.129Z,2.90
2023-03-11T16:18:30.976Z,7.07
2023-03-11T16:19:42.701Z,4.43
2023-03-11T16:20:55.442Z,1.70
2023-03-11T16:22:08.202Z,1.47
2023-03-11T16:23:24.662Z,2.57
2023-03-11T16:24:36.632Z,2.50
2023-03-11T16:25:49.104Z,1.87
2023-03-11T16:27:01.135Z,1.67
2023-03-11T16:28:16.403Z,1.40